createdAt,value
2023-05-09T13:00:02.148Z,80.86
2023-05-09T13:02:35.358Z,80.45
2023-05-09T13:05:10.923Z,79.41
2023-05-09T13:07:42.289Z,81.09
2023-05-09T13:10:13.737Z,81.03
2023-05-09T13:12:44.588Z,81.40
2023-05-09T13:15:14.218Z,81.09
2023-05-09T13:17:42.236Z,81.90
2023-05-09T13:20:10.702Z,81.45
2023-05-09T13:22:38.726Z,81.52
2023-05-09T13:25:07.499Z,81.29
2023-05-09T13:27:35.739Z,79.22
2023-05-09T13:30:03.760Z,78.87
2023-05-09T13:32:32.842Z,79.79
2023-05-09T13:35:00.601Z,79.95
2023-05-09T13:37:28.761Z,80.08
2023-05-09T13:39:56.601Z,78.38
2023-05-09T13:42:24.297Z,79.21
2023-05-09T13:44:52.064Z,78.98
2023-05-09T13:47:19.786Z,78.43
2023-05-09T15:18:34.427Z,93.04
2023-05-09T15:21:02.023Z,94.81
2023-05-09T15:23:29.976Z,95.41
2023-05-09T15:25:57.606Z,95.74
2023-05-09T15:28:25.166Z,96.22
2023-05-09T15:30:53.288Z,96.10
2023-05-09T15:33:21.115Z,95.93
2023-05-09T15:35:50.139Z,95.63
2023-05-09T15:38:17.954Z,95.75
2023-05-09T15:40:45.619Z,96.24
2023-05-09T15:43:13.605Z,96.19
2023-05-09T15:45:45.348Z,96.17
2023-05-09T15:48:13.380Z,96.29
2023-05-09T15:50:42.251Z,96.46
2023-05-09T15:53:11.412Z,96.38
2023-05-09T15:55:39.097Z,96.79
2023-05-09T15:58:08.515Z,96.65
2023-05-09T16:00:36.154Z,96.82
2023-05-09T16:03:03.928Z,96.88
2023-05-09T16:05:31.791Z,96.65
2023-05-09T16:07:59.444Z,96.99
2023-05-09T16:10:28.379Z,96.64
2023-05-09T16:12:56.078Z,96.82
2023-05-09T16:15:23.924Z,96.91
2023-05-09T16:17:51.600Z,96.60
2023-05-09T16:20:19.323Z,97.08
2023-05-09T16:22:47.062Z,97.25
2023-05-09T16:25:14.907Z,96.88
2023-05-09T16:27:44.246Z,97.08
2023-05-09T16:30:12.979Z,97.10
2023-05-09T16:32:40.847Z,97.21
2023-05-09T16:35:09.457Z,97.17
2023-05-09T16:37:37.337Z,96.92
2023-05-09T16:40:05.780Z,97.20
2023-05-09T16:42:33.434Z,96.85
2023-05-09T16:45:02.476Z,96.56
2023-05-09T16:47:30.171Z,96.84
2023-05-09T16:49:57.798Z,96.36
2023-05-09T16:52:25.380Z,96.57
2023-05-09T16:54:54.589Z,96.34
2023-05-09T16:57:22.417Z,96.35
2023-05-09T16:59:50.090Z,96.08
2023-05-09T17:02:19.063Z,96.44
2023-05-09T17:04:46.683Z,96.18
2023-05-09T17:07:15.527Z,96.18
2023-05-09T17:09:43.571Z,96.54
2023-05-09T17:12:16.310Z,96.78
2023-05-09T17:14:44.000Z,96.62
2023-05-09T17:17:12.962Z,96.63
2023-05-09T17:19:42.772Z,97.01
2023-05-09T17:22:10.876Z,96.39
2023-05-09T17:24:38.714Z,96.85
2023-05-09T17:27:06.427Z,96.60
2023-05-09T17:29:34.133Z,96.60
2023-05-09T17:32:01.868Z,96.77
2023-05-09T17:34:29.985Z,96.22
2023-05-09T17:37:00.810Z,96.18
2023-05-09T17:39:28.651Z,96.67
2023-05-09T17:41:56.288Z,97.10
2023-05-09T17:44:23.923Z,97.28
2023-05-09T17:46:51.891Z,97.33
2023-05-09T17:49:19.606Z,97.16
2023-05-09T17:51:47.247Z,97.39
2023-05-09T17:54:18.901Z,97.59
2023-05-09T17:56:47.381Z,97.39
2023-05-09T17:59:14.995Z,97.82
2023-05-09T18:01:42.693Z,97.17
2023-05-09T18:04:10.385Z,96.96
2023-05-09T18:06:38.050Z,97.28
2023-05-09T18:09:06.208Z,97.46
2023-05-09T18:11:35.285Z,97.31
2023-05-09T18:14:03.540Z,97.74
2023-05-09T18:16:31.254Z,97.58
2023-05-09T18:18:59.848Z,97.86
2023-05-09T18:21:28.654Z,97.72
2023-05-09T18:23:56.249Z,97.77
2023-05-09T18:26:23.867Z,98.05
2023-05-09T18:28:52.852Z,97.91
2023-05-09T18:31:20.427Z,97.86
2023-05-09T18:33:48.291Z,98.26
2023-05-09T18:36:16.049Z,98.01
2023-05-09T18:38:44.486Z,98.11
2023-05-09T18:41:13.177Z,98.15
2023-05-09T18:43:45.726Z,98.46
2023-05-09T18:46:17.363Z,98.32
2023-05-09T18:48:45.717Z,98.24
2023-05-09T18:51:13.404Z,98.50
2023-05-09T18:53:41.349Z,98.66
2023-05-09T18:56:09.212Z,98.55
2023-05-09T18:58:37.145Z,98.82
2023-05-09T19:01:04.966Z,98.66
2023-05-09T19:03:34.289Z,98.98
2023-05-09T19:06:01.979Z,98.87
2023-05-09T19:08:30.456Z,98.88
2023-05-09T19:10:58.018Z,98.93
2023-05-09T19:13:25.675Z,99.33
2023-05-09T19:15:53.390Z,99.25
2023-05-09T19:18:21.078Z,98.89
2023-05-09T19:20:50.068Z,99.25
2023-05-09T19:23:17.695Z,99.24
2023-05-09T19:25:45.521Z,99.21
2023-05-09T19:28:14.556Z,99.00
2023-05-09T19:30:42.291Z,99.62
2023-05-09T19:33:09.996Z,98.97
2023-05-09T19:35:38.284Z,99.34
2023-05-09T19:38:07.539Z,99.32
2023-05-09T19:40:35.214Z,99.39
2023-05-09T19:43:02.851Z,99.30
2023-05-09T19:45:31.039Z,99.22
2023-05-09T19:47:58.848Z,99.59
2023-05-09T19:50:26.542Z,99.30
2023-05-09T19:52:54.192Z,99.48
2023-05-09T19:55:23.457Z,99.52
2023-05-09T19:57:51.143Z,99.72
2023-05-09T20:00:19.644Z,99.67
2023-05-09T20:02:47.401Z,99.78
2023-05-09T20:05:15.192Z,99.51
2023-05-09T20:07:43.047Z,99.70
2023-05-09T20:10:12.796Z,99.71
2023-05-09T20:12:42.340Z,99.65
2023-05-09T20:15:10.642Z,99.51
2023-05-09T20:17:38.429Z,99.87
2023-05-09T20:20:07.387Z,99.91
2023-05-09T20:22:35.147Z,99.68
2023-05-09T20:25:02.930Z,99.87
2023-05-09T20:27:30.672Z,99.79
2023-05-09T20:29:59.821Z,99.82
2023-05-09T20:32:28.122Z,99.98
2023-05-09T20:34:56.200Z,99.96
2023-05-09T20:37:23.904Z,100.00
2023-05-09T20:39:51.629Z,100.00
2023-05-09T20:42:19.646Z,100.00
2023-05-09T20:44:48.613Z,100.00
2023-05-09T20:47:18.368Z,100.00
2023-05-09T20:49:46.163Z,100.00
2023-05-09T20:52:13.936Z,100.00
2023-05-09T20:54:41.670Z,100.00
2023-05-09T20:57:09.570Z,100.00
2023-05-09T20:59:37.337Z,100.00
2023-05-09T21:02:05.086Z,100.00
2023-05-09T21:04:34.283Z,100.00
2023-05-09T21:07:02.037Z,100.00
2023-05-09T21:09:29.803Z,100.00
2023-05-09T21:11:57.575Z,100.00
2023-05-09T21:14:25.307Z,100.00
2023-05-09T21:16:55.026Z,100.00
2023-05-09T21:19:22.848Z,100.00
2023-05-09T21:21:51.941Z,100.00
2023-05-09T21:24:19.701Z,100.00
2023-05-09T21:26:47.813Z,100.00
2023-05-09T21:29:15.552Z,100.00
2023-05-09T21:31:43.316Z,100.00
2023-05-09T21:34:11.175Z,100.00
2023-05-09T21:36:39.221Z,100.00
2023-05-09T21:39:09.625Z,100.00
2023-05-09T21:41:38.046Z,100.00
2023-05-09T21:44:07.266Z,100.00
2023-05-09T21:46:36.046Z,100.00
2023-05-09T21:49:04.018Z,100.00
2023-05-09T21:51:33.389Z,100.00
2023-05-09T21:54:01.124Z,100.00
2023-05-09T21:56:30.347Z,100.00
2023-05-09T21:58:58.020Z,100.00
2023-05-09T22:01:25.714Z,100.00
2023-05-09T22:03:53.527Z,100.00
2023-05-09T22:06:21.293Z,100.00
2023-05-09T22:08:51.001Z,100.00
2023-05-09T22:11:18.939Z,100.00
2023-05-09T22:13:47.933Z,100.00
2023-05-09T22:16:16.046Z,100.00
2023-05-09T22:18:43.695Z,100.00
2023-05-09T22:21:11.303Z,100.00
2023-05-09T22:23:38.961Z,100.00
2023-05-09T22:26:06.671Z,100.00
2023-05-09T22:28:34.346Z,100.00
2023-05-09T22:31:03.298Z,100.00
2023-05-09T22:33:30.929Z,100.00
2023-05-09T22:35:58.510Z,100.00
2023-05-09T22:38:26.101Z,100.00
2023-05-09T22:40:53.816Z,100.00
2023-05-09T22:43:21.481Z,100.00
2023-05-09T22:45:49.224Z,100.00
2023-05-09T22:48:18.274Z,100.00
2023-05-09T22:50:45.928Z,100.00
2023-05-09T22:53:13.516Z,100.00
2023-05-09T22:55:41.422Z,100.00
2023-05-09T22:58:09.285Z,100.00
2023-05-09T23:00:37.093Z,100.00
2023-05-09T23:03:05.083Z,100.00
2023-05-09T23:05:34.218Z,100.00
2023-05-09T23:08:01.918Z,100.00
2023-05-09T23:10:29.603Z,100.00
2023-05-09T23:12:57.278Z,100.00
2023-05-09T23:15:24.967Z,100.00
2023-05-09T23:17:52.933Z,100.00
2023-05-09T23:20:20.743Z,100.00
2023-05-09T23:22:49.966Z,100.00
2023-05-09T23:25:17.658Z,100.00
2023-05-09T23:27:46.791Z,100.00
2023-05-09T23:30:14.826Z,100.00
2023-05-09T23:32:42.618Z,100.00
2023-05-09T23:35:10.555Z,100.00
2023-05-09T23:37:38.103Z,100.00
2023-05-09T23:40:07.975Z,100.00
2023-05-09T23:42:35.427Z,100.00
2023-05-09T23:45:02.889Z,100.00
2023-05-09T23:47:30.467Z,100.00
2023-05-09T23:49:58.005Z,100.00
2023-05-09T23:52:25.882Z,100.00
2023-05-09T23:54:53.326Z,100.00
2023-05-09T23:57:22.148Z,100.00
2023-05-09T23:59:49.625Z,100.00
